createdAt,value
2019-03-29T00:01:20.423Z,8.68
2019-03-29T00:03:54.953Z,8.33
2019-03-29T00:06:30.250Z,7.55
2019-03-29T00:09:02.350Z,7.90
2019-03-29T00:11:36.619Z,6.95
2019-03-29T00:14:08.501Z,7.60
2019-03-29T00:16:40.512Z,6.28
2019-03-29T00:19:12.278Z,6.55
2019-03-29T00:21:49.242Z,7.30
2019-03-29T00:24:27.500Z,7.92
2019-03-29T00:27:05.450Z,6.97
2019-03-29T00:29:39.374Z,6.75
2019-03-29T00:32:12.391Z,7.33
2019-03-29T00:34:46.585Z,6.53
2019-03-29T00:37:24.611Z,6.47
2019-03-29T00:39:59.631Z,7.40
2019-03-29T00:42:36.483Z,6.58
2019-03-29T00:45:11.708Z,6.80
2019-03-29T00:47:44.980Z,7.80
2019-03-29T00:52:49.691Z,7.37
2019-03-29T00:55:22.561Z,7.45
2019-03-29T00:57:58.290Z,7.53
2019-03-29T01:00:33.998Z,9.07
2019-03-29T01:03:11.004Z,9.45
2019-03-29T01:05:47.004Z,8.20
2019-03-29T01:08:24.929Z,8.15
2019-03-29T01:11:02.932Z,8.28
2019-03-29T01:13:39.309Z,9.28
2019-03-29T01:16:13.389Z,9.35
2019-03-29T01:18:53.473Z,7.35
2019-03-29T01:21:35.458Z,7.78
2019-03-29T01:24:12.196Z,7.17
2019-03-29T01:26:50.508Z,9.15
2019-03-29T01:29:25.288Z,9.03
2019-03-29T01:32:05.083Z,8.03
2019-03-29T01:34:43.913Z,10.03
2019-03-29T01:37:22.188Z,7.87
2019-03-29T01:39:59.554Z,7.87
2019-03-29T01:42:36.907Z,8.45
2019-03-29T01:45:11.404Z,9.83
2019-03-29T01:47:48.568Z,10.55
2019-03-29T01:50:35.455Z,8.90
2019-03-29T01:53:16.796Z,11.88
2019-03-29T01:56:00.770Z,9.73
2019-03-29T01:58:33.407Z,9.45
2019-03-29T02:01:16.773Z,8.60
2019-03-29T02:04:17.314Z,12.43
2019-03-29T02:06:50.933Z,9.80
2019-03-29T02:09:31.008Z,8.58
2019-03-29T02:12:08.429Z,9.68
2019-03-29T02:14:49.981Z,11.48
2019-03-29T02:17:22.601Z,10.23
2019-03-29T02:20:01.724Z,9.73
2019-03-29T02:30:33.983Z,10.18
2019-03-29T02:33:11.912Z,8.63
2019-03-29T02:35:44.560Z,11.50
2019-03-29T02:38:55.625Z,8.90
2019-03-29T02:46:21.973Z,10.70
2019-03-29T02:48:55.680Z,11.43
2019-03-29T02:51:36.554Z,10.48
2019-03-29T02:54:12.223Z,10.30
2019-03-29T02:56:46.936Z,11.53
2019-03-29T02:59:23.868Z,10.05
2019-03-29T03:02:01.180Z,10.82
2019-03-29T03:04:35.347Z,11.40
2019-03-29T03:07:15.504Z,10.25
2019-03-29T03:09:55.193Z,11.55
2019-03-29T03:12:32.505Z,13.40
2019-03-29T03:15:14.241Z,12.70
2019-03-29T03:20:28.776Z,11.68
2019-03-29T03:23:06.013Z,11.43
2019-03-29T03:26:04.522Z,11.63
2019-03-29T03:29:14.077Z,11.10
2019-03-29T03:31:38.657Z,12.53
2019-03-29T03:34:13.549Z,11.83
2019-03-29T03:36:54.973Z,10.28
2019-03-29T03:39:34.744Z,13.98
2019-03-29T03:42:24.271Z,11.12
2019-03-29T03:45:01.494Z,11.97
2019-03-29T03:47:34.852Z,12.98
2019-03-29T04:03:05.795Z,12.80
2019-03-29T04:17:48.149Z,12.07
2019-03-29T04:20:20.752Z,11.97
2019-03-29T04:22:58.275Z,12.30
2019-03-29T04:25:35.661Z,14.38
2019-03-29T04:31:08.868Z,13.53
2019-03-29T04:33:56.934Z,12.53
2019-03-29T04:36:32.071Z,14.40
2019-03-29T04:39:13.203Z,12.35
2019-03-29T04:41:57.335Z,12.30
2019-03-29T04:44:35.197Z,13.15
2019-03-29T04:47:41.004Z,13.30
2019-03-29T04:50:38.552Z,13.83
2019-03-29T04:53:16.727Z,13.53
2019-03-29T04:55:52.300Z,12.98
2019-03-29T04:58:32.266Z,13.10
2019-03-29T05:01:17.390Z,13.28
2019-03-29T05:03:50.411Z,12.73
2019-03-29T05:06:52.250Z,13.55
2019-03-29T05:09:17.388Z,13.35
2019-03-29T05:11:53.736Z,13.32
2019-03-29T05:14:29.220Z,13.50
2019-03-29T05:17:07.066Z,12.80
2019-03-29T05:19:44.702Z,11.93
2019-03-29T05:22:19.273Z,15.13
2019-03-29T05:24:56.306Z,14.10
2019-03-29T05:27:31.045Z,14.35
2019-03-29T05:30:13.387Z,13.22
2019-03-29T05:33:09.585Z,14.25
2019-03-29T05:35:55.180Z,14.43
2019-03-29T05:38:33.341Z,14.65
2019-03-29T05:41:15.921Z,12.65
2019-03-29T05:43:51.891Z,13.53
2019-03-29T05:47:08.975Z,13.22
2019-03-29T05:49:50.585Z,13.50
2019-03-29T05:52:47.238Z,16.00
2019-03-29T05:55:32.846Z,14.63
2019-03-29T05:58:12.666Z,16.10
2019-03-29T06:00:53.881Z,14.03
2019-03-29T06:03:46.279Z,13.62
2019-03-29T06:06:55.659Z,18.67
2019-03-29T06:09:45.996Z,17.45
2019-03-29T06:12:19.961Z,17.55
2019-03-29T06:14:53.858Z,15.08
2019-03-29T06:18:20.138Z,18.15
2019-03-29T06:21:01.538Z,16.30
2019-03-29T06:26:30.056Z,15.10
2019-03-29T06:32:01.489Z,16.85
2019-03-29T06:34:33.868Z,13.13
2019-03-29T06:37:06.131Z,12.82
2019-03-29T06:39:38.434Z,14.55
2019-03-29T06:42:10.282Z,15.15
2019-03-29T06:44:44.335Z,15.38
2019-03-29T06:47:16.818Z,17.77
2019-03-29T06:49:52.835Z,15.93
2019-03-29T06:52:25.618Z,14.25
2019-03-29T06:54:58.560Z,15.85
2019-03-29T06:57:30.355Z,19.10
2019-03-29T07:00:02.618Z,16.00
2019-03-29T07:05:07.031Z,18.20
2019-03-29T07:07:39.301Z,19.55
2019-03-29T07:10:11.480Z,16.90
2019-03-29T07:12:43.732Z,18.00
2019-03-29T07:15:16.033Z,19.77
2019-03-29T07:17:47.875Z,20.08
2019-03-29T07:20:21.702Z,15.93
2019-03-29T07:22:54.037Z,19.57
2019-03-29T07:25:26.248Z,16.77
2019-03-29T07:27:58.658Z,17.92
2019-03-29T07:30:30.614Z,18.90
2019-03-29T07:33:03.145Z,18.67
2019-03-29T07:35:35.811Z,17.75
2019-03-29T07:38:08.394Z,19.62
2019-03-29T07:40:40.897Z,17.97
2019-03-29T07:43:13.324Z,22.60
2019-03-29T07:45:45.519Z,20.93
2019-03-29T07:48:17.796Z,25.00
2019-03-29T07:50:50.362Z,21.93
2019-03-29T07:53:22.331Z,20.35
2019-03-29T07:55:54.587Z,19.40
2019-03-29T07:58:26.449Z,20.57
2019-03-29T08:00:58.282Z,20.15
2019-03-29T08:03:30.187Z,18.65
2019-03-29T08:06:02.045Z,21.27
2019-03-29T08:08:34.520Z,29.52
2019-03-29T08:11:06.877Z,21.73
2019-03-29T08:13:38.773Z,21.40
2019-03-29T08:16:10.740Z,20.05
2019-03-29T08:18:42.658Z,22.73
2019-03-29T08:21:14.905Z,22.05
2019-03-29T08:23:46.791Z,20.08
2019-03-29T08:26:18.695Z,20.70
2019-03-29T08:28:51.278Z,20.50
2019-03-29T08:31:23.291Z,20.00
2019-03-29T08:33:55.627Z,20.72
2019-03-29T08:36:27.495Z,18.85
2019-03-29T08:38:59.324Z,22.95
2019-03-29T08:41:31.108Z,19.90
2019-03-29T08:44:03.480Z,20.77
2019-03-29T08:46:36.357Z,19.25
2019-03-29T08:49:10.218Z,19.57
2019-03-29T08:51:42.937Z,17.82
2019-03-29T08:54:15.244Z,15.43
2019-03-29T08:56:47.207Z,18.45
2019-03-29T08:59:19.674Z,19.85
2019-03-29T09:01:52.086Z,18.67
2019-03-29T09:04:23.969Z,17.35
2019-03-29T09:06:55.874Z,16.23
2019-03-29T09:09:31.734Z,17.30
2019-03-29T09:12:14.239Z,15.78
2019-03-29T09:14:38.472Z,14.43
2019-03-29T09:17:10.738Z,14.97
2019-03-29T09:19:43.231Z,16.02
2019-03-29T09:22:15.757Z,16.57
2019-03-29T09:24:48.202Z,15.50
2019-03-29T09:27:20.949Z,14.00
2019-03-29T09:29:52.827Z,12.40
2019-03-29T09:32:24.963Z,16.20
2019-03-29T09:34:56.932Z,14.78
2019-03-29T09:37:28.856Z,16.42
2019-03-29T09:40:02.308Z,16.57
2019-03-29T09:42:34.165Z,15.03
2019-03-29T09:45:06.567Z,14.35
2019-03-29T09:47:40.511Z,14.93
2019-03-29T09:50:13.434Z,14.60
2019-03-29T09:52:46.639Z,11.90
2019-03-29T09:57:54.624Z,12.43
2019-03-29T10:00:26.482Z,16.32
2019-03-29T10:02:58.948Z,11.78
2019-03-29T10:05:31.777Z,14.27
2019-03-29T10:08:05.543Z,14.83
2019-03-29T10:10:37.503Z,12.25
2019-03-29T10:13:10.435Z,12.18
2019-03-29T10:15:42.276Z,11.38
2019-03-29T10:18:14.093Z,15.30
2019-03-29T10:20:46.291Z,10.32
2019-03-29T10:23:19.113Z,11.10
2019-03-29T10:25:52.532Z,12.75
2019-03-29T10:30:55.411Z,11.05
2019-03-29T10:33:27.287Z,14.23
2019-03-29T10:35:59.555Z,10.58
2019-03-29T10:38:32.346Z,12.23
2019-03-29T10:41:04.632Z,12.80
2019-03-29T10:43:37.577Z,12.93
2019-03-29T10:46:09.859Z,15.95
2019-03-29T10:48:42.073Z,10.53
2019-03-29T10:51:14.319Z,12.45
2019-03-29T10:53:46.458Z,10.95
2019-03-29T10:56:33.303Z,14.40
2019-03-29T10:58:54.272Z,11.75
2019-03-29T11:01:27.936Z,11.00
2019-03-29T11:03:59.918Z,14.75
2019-03-29T11:06:32.101Z,13.45
2019-03-29T11:09:05.612Z,12.85
2019-03-29T11:11:37.720Z,14.65
2019-03-29T11:14:10.668Z,17.90
2019-03-29T11:16:43.506Z,17.65
2019-03-29T11:19:15.730Z,19.98
2019-03-29T11:21:48.783Z,18.50
2019-03-29T11:24:20.617Z,16.40
2019-03-29T11:26:52.937Z,45.58
2019-03-29T11:29:24.981Z,26.45
2019-03-29T11:31:56.922Z,17.55
2019-03-29T11:34:28.788Z,18.10
2019-03-29T11:37:00.583Z,17.75
2019-03-29T11:39:33.048Z,32.55
2019-03-29T11:42:04.980Z,20.20
2019-03-29T11:44:36.938Z,27.60
2019-03-29T11:47:09.575Z,18.85
2019-03-29T11:49:41.678Z,16.37
2019-03-29T11:52:13.874Z,14.47
2019-03-29T11:54:46.216Z,20.80
2019-03-29T11:57:18.185Z,20.97
2019-03-29T11:59:50.503Z,18.87
2019-03-29T12:02:31.086Z,17.32
2019-03-29T12:04:56.452Z,16.07
2019-03-29T12:07:28.700Z,15.18
2019-03-29T12:10:01.743Z,14.55
2019-03-29T12:12:35.178Z,12.60
2019-03-29T12:15:10.196Z,13.28
2019-03-29T12:17:42.572Z,13.68
2019-03-29T12:20:14.796Z,12.63
2019-03-29T12:22:47.229Z,15.15
2019-03-29T12:25:19.294Z,10.72
2019-03-29T12:27:51.738Z,12.75
2019-03-29T12:30:31.927Z,12.43
2019-03-29T12:32:58.843Z,11.70
2019-03-29T12:35:30.817Z,11.03
2019-03-29T12:38:03.978Z,11.05
2019-03-29T12:40:36.044Z,13.93
2019-03-29T12:43:12.292Z,13.68
2019-03-29T15:17:51.593Z,12.53
2019-03-29T15:20:24.091Z,15.25
2019-03-29T15:22:56.158Z,12.13
2019-03-29T15:25:28.531Z,13.45
2019-03-29T15:28:02.318Z,13.93
2019-03-29T15:30:35.033Z,15.30
2019-03-29T15:33:07.877Z,16.23
2019-03-29T15:35:41.847Z,14.47
2019-03-29T15:38:15.015Z,13.13
2019-03-29T15:40:48.370Z,18.48
2019-03-29T15:43:20.485Z,14.23
2019-03-29T15:45:52.887Z,13.13
2019-03-29T15:48:26.637Z,13.83
2019-03-29T15:50:58.990Z,13.40
2019-03-29T15:53:32.051Z,13.98
2019-03-29T15:56:04.984Z,14.33
2019-03-29T15:58:37.337Z,16.07
2019-03-29T16:01:10.314Z,15.77
2019-03-29T16:03:43.225Z,13.78
2019-03-29T16:06:15.596Z,14.00
2019-03-29T16:08:48.563Z,13.67
2019-03-29T16:11:22.682Z,13.43
2019-03-29T16:13:55.170Z,13.13
2019-03-29T16:16:27.521Z,14.43
2019-03-29T16:18:59.926Z,13.30
2019-03-29T16:21:35.797Z,13.37
2019-03-29T16:24:08.350Z,14.45
2019-03-29T16:26:41.490Z,14.23
2019-03-29T16:31:45.294Z,13.45
2019-03-29T16:34:18.784Z,13.00
2019-03-29T16:36:50.945Z,14.33
2019-03-29T16:39:23.295Z,11.70
2019-03-29T16:41:55.320Z,11.55
2019-03-29T16:44:27.742Z,13.40
2019-03-29T16:46:59.858Z,13.60
2019-03-29T16:49:32.848Z,12.98
2019-03-29T16:52:05.122Z,12.20
2019-03-29T16:54:37.277Z,13.62
2019-03-29T16:57:10.164Z,13.53
2019-03-29T16:59:42.737Z,13.15
2019-03-29T17:02:15.541Z,17.85
2019-03-29T17:04:47.616Z,12.80
2019-03-29T17:07:20.086Z,11.57
2019-03-29T17:09:52.213Z,14.00
2019-03-29T17:12:24.855Z,14.98
2019-03-29T17:14:57.579Z,13.20
2019-03-29T17:17:29.902Z,15.50
2019-03-29T17:20:03.209Z,14.00
2019-03-29T17:22:36.373Z,14.78
2019-03-29T17:25:09.925Z,13.13
2019-03-29T17:27:43.004Z,13.60
2019-03-29T17:30:18.873Z,14.85
2019-03-29T17:32:51.328Z,13.78
2019-03-29T17:35:23.446Z,17.13
2019-03-29T17:37:56.554Z,17.77
2019-03-29T17:40:29.314Z,16.07
2019-03-29T17:43:02.183Z,16.25
2019-03-29T17:45:34.537Z,14.03
2019-03-29T17:48:07.026Z,17.63
2019-03-29T17:50:39.013Z,15.93
2019-03-29T17:53:12.993Z,13.55
2019-03-29T17:55:45.869Z,18.40
2019-03-29T17:58:18.647Z,15.72
2019-03-29T18:00:50.715Z,16.07
2019-03-29T18:03:23.717Z,16.17
2019-03-29T18:05:57.018Z,14.20
2019-03-29T18:08:29.612Z,15.80
2019-03-29T18:11:03.671Z,16.23
2019-03-29T18:13:35.972Z,18.17
2019-03-29T18:16:08.737Z,14.60
2019-03-29T18:18:41.624Z,16.55
2019-03-29T18:21:14.376Z,17.17
2019-03-29T18:23:46.881Z,16.62
2019-03-29T18:26:20.284Z,15.63
